Time;durP1;ratioP1;P1;durP2;ratioP2;P2;SDS_P1;SDS_P2;PMS_P1;PMS_P2;Temp;Humidity;BMP_temperature;BMP_pressure;BME280_temperature;BME280_humidity;BME280_pressure;Samples;Min_cycle;Max_cycle;Signal;HPM_P1;HPM_P2
2022/05/21 00:01:08;;;;;;;0.00;0.00;;;;;;;13.60;60.63;101172.75;7362348;19;20006;-57
2022/05/21 00:03:33;;;;;;;0.00;0.00;;;;;;;13.64;60.92;101179.66;7364774;19;20017;-56
2022/05/21 00:05:59;;;;;;;0.00;0.00;;;;;;;13.65;60.58;101176.13;7361944;19;20006;-58
2022/05/21 00:08:24;;;;;;;0.00;0.00;;;;;;;13.66;61.28;101172.56;7362500;19;20030;-57
2022/05/21 00:10:50;;;;;;;0.00;0.00;;;;;;;13.60;61.28;101167.50;7361365;19;20093;-57
2022/05/21 00:13:15;;;;;;;0.00;0.00;;;;;;;13.60;61.26;101167.50;7364001;19;20011;-54
2022/05/21 00:15:41;;;;;;;0.00;0.00;;;;;;;13.58;61.38;101161.44;7361846;19;20006;-55
2022/05/21 00:18:07;;;;;;;0.00;0.00;;;;;;;13.51;61.58;101162.50;7361674;19;20019;-58
2022/05/21 00:20:47;;;;;;;0.00;0.00;;;;;;;13.55;61.47;101176.41;7361449;19;20882;-58
2022/05/21 00:23:14;;;;;;;0.03;0.03;;;;;;;13.57;61.47;101179.84;7363961;19;20014;-57
2022/05/21 00:25:42;;;;;;;0.00;0.00;;;;;;;13.55;61.73;101173.78;7362650;19;20078;-58
2022/05/21 00:28:07;;;;;;;0.00;0.00;;;;;;;13.51;60.87;101167.75;7363814;19;20022;-58
2022/05/21 00:30:33;;;;;;;0.10;0.10;;;;;;;13.48;61.17;101167.81;7363822;19;20040;-58
2022/05/21 00:32:59;;;;;;;0.03;0.03;;;;;;;13.44;62.20;101171.47;7363926;19;20010;-58
2022/05/21 00:35:25;;;;;;;0.00;0.00;;;;;;;13.37;62.05;101175.13;7360932;19;20014;-58
2022/05/21 00:37:50;;;;;;;0.00;0.00;;;;;;;13.36;62.42;101173.41;7363130;19;20011;-56
2022/05/21 00:40:16;;;;;;;0.08;0.08;;;;;;;13.33;62.00;101168.25;7359716;19;20011;-57
2022/05/21 00:42:43;;;;;;;0.00;0.00;;;;;;;13.33;61.63;101178.72;7363307;19;20300;-58
2022/05/21 00:45:09;;;;;;;0.00;0.00;;;;;;;13.30;62.16;101168.34;7363006;19;20018;-57
2022/05/21 00:47:36;;;;;;;0.00;0.00;;;;;;;13.29;61.70;101164.00;7363812;19;20772;-58
2022/05/21 00:50:02;;;;;;;0.00;0.00;;;;;;;13.12;62.60;101133.78;7361139;19;20015;-58
2022/05/21 00:52:28;;;;;;;0.00;0.00;;;;;;;13.26;62.10;101151.81;7360802;19;20021;-56
2022/05/21 00:54:58;;;;;;;0.00;0.00;;;;;;;13.28;62.51;101157.00;7363161;19;20111;-57
2022/05/21 00:57:35;;;;;;;0.00;0.00;;;;;;;13.29;61.92;101153.50;7360440;19;21456;-58
2022/05/21 01:00:19;;;;;;;0.00;0.00;;;;;;;13.30;61.43;101155.22;7362472;19;20010;-56
2022/05/21 01:02:47;;;;;;;0.00;0.00;;;;;;;13.27;63.07;101152.66;7365134;19;20905;-57
2022/05/21 01:05:16;;;;;;;0.00;0.00;;;;;;;13.27;62.77;101152.66;7362529;19;20037;-58
2022/05/21 01:07:45;;;;;;;0.00;0.00;;;;;;;13.25;61.93;101173.69;7362470;19;20010;-55
2022/05/21 01:10:12;;;;;;;0.00;0.00;;;;;;;13.20;62.73;101173.78;7361102;19;20017;-57
2022/05/21 01:12:43;;;;;;;0.00;0.00;;;;;;;13.07;62.81;101156.63;7363948;19;20747;-56
2022/05/21 01:15:15;;;;;;;0.00;0.00;;;;;;;13.18;62.71;101170.34;7362670;19;20042;-55
2022/05/21 01:17:41;;;;;;;0.00;0.00;;;;;;;13.14;62.31;101166.09;7362817;19;20473;-57
2022/05/21 01:20:21;;;;;;;0.10;0.10;;;;;;;13.08;62.30;101153.13;7362913;19;20014;-56
2022/05/21 01:22:49;;;;;;;0.00;0.00;;;;;;;13.06;62.67;101164.56;7364981;19;20117;-57
2022/05/21 01:25:19;;;;;;;0.00;0.00;;;;;;;13.02;63.24;101153.28;7363186;19;20816;-56
2022/05/21 01:27:45;;;;;;;0.00;0.00;;;;;;;13.00;63.16;101152.47;7361820;19;20010;-58
2022/05/21 01:30:15;;;;;;;0.00;0.00;;;;;;;12.99;62.77;101166.47;7363956;19;20015;-57
2022/05/21 01:32:44;;;;;;;0.05;0.05;;;;;;;12.92;63.05;101146.53;7363783;19;21068;-57
2022/05/21 01:35:10;;;;;;;0.10;0.10;;;;;;;12.93;63.36;101156.16;7363826;19;20018;-58
2022/05/21 01:37:36;;;;;;;0.00;0.00;;;;;;;12.90;62.83;101158.84;7362330;19;20814;-57
2022/05/21 01:40:01;;;;;;;0.00;0.00;;;;;;;12.91;62.74;101157.94;7362485;19;20167;-56
2022/05/21 01:42:27;;;;;;;0.05;0.05;;;;;;;12.85;63.32;101147.59;7362880;19;20006;-55
2022/05/21 01:44:52;;;;;;;0.00;0.00;;;;;;;12.84;63.63;101149.38;7361181;19;20014;-57
2022/05/21 01:47:20;;;;;;;0.00;0.00;;;;;;;12.82;63.36;101151.16;7361400;19;20046;-58
2022/05/21 01:49:46;;;;;;;0.00;0.00;;;;;;;12.76;63.42;101132.09;7360539;19;20010;-57
2022/05/21 01:52:13;;;;;;;0.00;0.00;;;;;;;12.83;63.57;101141.56;7363181;19;20018;-57
2022/05/21 01:54:38;;;;;;;0.00;0.00;;;;;;;12.75;63.49;101136.50;7362779;19;20010;-55
2022/05/21 01:57:05;;;;;;;0.00;0.00;;;;;;;12.81;63.83;101144.19;7360007;19;20740;-56
2022/05/21 01:59:31;;;;;;;0.00;0.00;;;;;;;12.83;63.17;101136.31;7355363;19;20468;-55
2022/05/21 02:01:56;;;;;;;0.00;0.00;;;;;;;12.82;62.79;101134.56;7363653;19;20034;-57
2022/05/21 02:04:22;;;;;;;0.00;0.00;;;;;;;12.70;63.73;101133.97;7359910;19;20010;-55
2022/05/21 02:06:48;;;;;;;0.00;0.00;;;;;;;12.70;64.29;101136.59;7361971;19;20926;-59
2022/05/21 02:09:14;;;;;;;0.00;0.00;;;;;;;12.83;64.13;101162.53;7361720;19;20101;-58
2022/05/21 02:11:40;;;;;;;0.00;0.00;;;;;;;12.84;63.89;101157.22;7363771;19;20082;-58
2022/05/21 02:14:07;;;;;;;0.00;0.00;;;;;;;12.84;64.88;101165.09;7360279;19;20082;-54
2022/05/21 02:16:36;;;;;;;0.00;0.00;;;;;;;12.50;64.54;101110.03;7354724;19;20026;-58
2022/05/21 02:19:04;;;;;;;0.00;0.00;;;;;;;12.88;64.80;101176.38;7359120;19;20010;-57
2022/05/21 02:21:31;;;;;;;0.00;0.00;;;;;;;12.90;64.44;101170.19;7362917;19;20355;-57
2022/05/21 02:23:56;;;;;;;0.03;0.03;;;;;;;12.89;64.59;101159.75;7361420;19;20019;-57
2022/05/21 02:26:22;;;;;;;0.00;0.00;;;;;;;12.94;64.76;101163.09;7363258;19;20013;-58
2022/05/21 02:28:48;;;;;;;0.00;0.00;;;;;;;12.95;65.10;101163.06;7360804;19;20469;-58
2022/05/21 02:31:14;;;;;;;0.00;0.00;;;;;;;12.95;64.87;101154.34;7361665;19;20010;-57
2022/05/21 02:33:42;;;;;;;0.00;0.00;;;;;;;13.01;65.01;101151.56;7358294;19;20014;-58
2022/05/21 02:36:08;;;;;;;0.00;0.00;;;;;;;13.03;65.36;101155.03;7359394;19;20046;-58
2022/05/21 02:41:18;;;;;;;0.00;0.00;;;;;;;13.08;65.00;101158.38;7359010;19;20028;-57
2022/05/21 02:43:44;;;;;;;0.00;0.00;;;;;;;13.05;65.49;101155.81;7359731;19;20026;-57
2022/05/21 02:46:11;;;;;;;0.00;0.00;;;;;;;13.10;64.34;101161.81;7358475;19;20569;-57
2022/05/21 02:48:37;;;;;;;0.10;0.10;;;;;;;13.12;65.32;101170.50;7360258;19;20759;-57
2022/05/21 02:51:03;;;;;;;0.00;0.00;;;;;;;13.12;65.57;101162.63;7357705;19;20014;-58
2022/05/21 02:53:28;;;;;;;0.00;0.00;;;;;;;13.06;64.92;101144.44;7361084;19;20466;-57
2022/05/21 02:55:55;;;;;;;0.00;0.00;;;;;;;13.23;64.85;101173.75;7361124;19;20018;-58
2022/05/21 02:58:21;;;;;;;0.00;0.00;;;;;;;13.27;65.31;101176.28;7361420;19;20018;-56
2022/05/21 03:00:47;;;;;;;0.00;0.00;;;;;;;13.26;64.65;101172.78;7369100;19;20013;-56
2022/05/21 03:03:13;;;;;;;0.00;0.00;;;;;;;13.31;64.56;101170.06;7362226;19;20015;-59
2022/05/21 03:05:39;;;;;;;0.00;0.00;;;;;;;13.32;65.20;101169.16;7365264;19;20019;-56
2022/05/21 03:10:54;;;;;;;0.00;0.00;;;;;;;13.37;64.09;101173.38;7366886;19;20119;-57
2022/05/21 03:13:20;;;;;;;0.10;0.10;;;;;;;13.35;64.33;101167.31;7369061;19;20010;-55
2022/05/21 03:15:45;;;;;;;0.10;0.10;;;;;;;13.37;64.30;101164.63;7367551;19;20006;-56
2022/05/21 03:18:12;;;;;;;0.00;0.00;;;;;;;13.38;64.24;101171.59;7361972;19;20046;-55
2022/05/21 03:20:39;;;;;;;0.00;0.00;;;;;;;13.27;64.74;101158.78;7369555;19;20776;-53
2022/05/21 03:23:05;;;;;;;0.00;0.00;;;;;;;13.37;64.42;101167.25;7368065;19;20014;-58
2022/05/21 03:25:31;;;;;;;0.00;0.00;;;;;;;13.35;64.60;101171.69;7367899;19;20018;-57
2022/05/21 03:27:56;;;;;;;0.00;0.00;;;;;;;13.37;64.64;101169.88;7366996;19;20017;-56
2022/05/21 03:30:24;;;;;;;0.05;0.05;;;;;;;13.33;64.58;101163.00;7369038;19;20025;-56
2022/05/21 03:32:50;;;;;;;0.08;0.08;;;;;;;13.28;64.04;101160.53;7369892;19;20102;-57
2022/05/21 03:35:16;;;;;;;0.00;0.00;;;;;;;13.38;64.45;101176.84;7369188;19;20087;-56
2022/05/21 03:37:42;;;;;;;0.10;0.10;;;;;;;13.38;64.00;101182.09;7370575;19;20010;-55
2022/05/21 03:40:11;;;;;;;0.00;0.00;;;;;;;12.96;64.59;101130.69;7365865;19;20018;-56
2022/05/21 03:42:37;;;;;;;0.03;0.03;;;;;;;13.30;64.47;101173.59;7368353;19;20012;-57
2022/05/21 03:45:03;;;;;;;0.00;0.00;;;;;;;13.37;64.79;101190.88;7370212;19;20102;-57
2022/05/21 03:47:29;;;;;;;0.00;0.00;;;;;;;13.21;64.64;101159.81;7366943;19;20027;-56
2022/05/21 03:49:54;;;;;;;0.10;0.10;;;;;;;13.22;64.35;101161.50;7368134;19;20015;-58
2022/05/21 03:52:20;;;;;;;0.00;0.00;;;;;;;13.38;64.45;101187.34;7370014;19;20034;-56
2022/05/21 03:54:46;;;;;;;0.00;0.00;;;;;;;13.38;64.16;101188.22;7368177;19;20501;-57
2022/05/21 03:57:12;;;;;;;0.00;0.00;;;;;;;13.37;64.60;101189.09;7368023;19;20033;-53
2022/05/21 03:59:37;;;;;;;0.00;0.00;;;;;;;13.35;64.82;101176.94;7367950;19;20826;-57
2022/05/21 04:02:03;;;;;;;0.00;0.00;;;;;;;13.37;64.31;101185.63;7367839;19;20009;-58
2022/05/21 04:04:28;;;;;;;0.00;0.00;;;;;;;13.36;64.65;101173.41;7370411;19;20014;-56
2022/05/21 04:06:55;;;;;;;0.00;0.00;;;;;;;13.36;64.38;101173.41;7368778;19;20466;-58
2022/05/21 04:09:20;;;;;;;0.00;0.00;;;;;;;13.35;64.11;101172.56;7370271;19;20010;-57
2022/05/21 04:11:45;;;;;;;0.10;0.10;;;;;;;13.29;64.46;101162.25;7367605;19;20010;-57
2022/05/21 04:14:14;;;;;;;0.00;0.00;;;;;;;13.35;64.52;101174.31;7368793;19;19999;-56
2022/05/21 04:16:40;;;;;;;0.00;0.00;;;;;;;13.29;64.61;101172.72;7366458;19;20082;-56
2022/05/21 04:19:05;;;;;;;0.00;0.00;;;;;;;13.30;65.34;101168.34;7367933;19;20014;-57
2022/05/21 04:21:31;;;;;;;0.10;0.10;;;;;;;13.32;64.78;101171.78;7368813;19;20034;-57
2022/05/21 04:23:56;;;;;;;0.00;0.00;;;;;;;13.20;64.66;101165.91;7369198;19;20535;-56
2022/05/21 04:26:22;;;;;;;0.00;0.00;;;;;;;13.33;65.07;101181.34;7368059;19;20015;-57
2022/05/21 04:28:47;;;;;;;0.08;0.08;;;;;;;13.33;64.99;101181.34;7368140;19;20099;-58
2022/05/21 04:31:13;;;;;;;0.00;0.00;;;;;;;13.34;64.99;101185.72;7367652;19;20359;-58
2022/05/21 04:33:38;;;;;;;0.00;0.00;;;;;;;13.22;65.04;101161.50;7366752;19;20038;-57
2022/05/21 04:36:19;;;;;;;0.10;0.10;;;;;;;13.28;64.90;101175.38;7367599;19;20014;-56
2022/05/21 04:38:49;;;;;;;0.00;0.00;;;;;;;13.35;65.02;101193.53;7366170;19;20025;-57
2022/05/21 04:41:16;;;;;;;0.00;0.00;;;;;;;13.33;64.88;101189.22;7365445;19;20015;-58
2022/05/21 04:43:41;;;;;;;0.10;0.10;;;;;;;13.33;65.39;101189.22;7365024;19;20017;-58
2022/05/21 04:46:08;;;;;;;0.05;0.05;;;;;;;13.22;65.03;101179.88;7366973;19;20026;-59
2022/05/21 04:48:33;;;;;;;0.00;0.00;;;;;;;13.30;64.96;101191.94;7366654;19;20734;-57
2022/05/21 04:51:01;;;;;;;0.08;0.08;;;;;;;13.34;64.74;101201.47;7364357;19;20017;-58
2022/05/21 04:53:27;;;;;;;0.00;0.00;;;;;;;13.34;64.90;101199.69;7365218;19;20026;-57
2022/05/21 04:55:52;;;;;;;0.00;0.00;;;;;;;13.34;64.23;101198.84;7366822;19;20569;-56
2022/05/21 04:58:17;;;;;;;0.10;0.10;;;;;;;13.33;64.69;101199.72;7365739;19;20027;-56
2022/05/21 05:00:43;;;;;;;0.10;0.10;;;;;;;13.34;64.86;101196.22;7364808;19;20117;-58
2022/05/21 05:03:13;;;;;;;0.00;0.00;;;;;;;13.24;64.72;101182.47;7365711;19;20050;-59
2022/05/21 05:05:43;;;;;;;0.00;0.00;;;;;;;13.36;64.63;101195.25;7365174;19;20013;-58
2022/05/21 05:08:09;;;;;;;0.00;0.00;;;;;;;13.36;65.29;101199.66;7364156;19;20010;-56
2022/05/21 05:10:38;;;;;;;0.00;0.00;;;;;;;13.36;65.46;101197.03;7367775;19;20032;-54
2022/05/21 05:13:05;;;;;;;0.00;0.00;;;;;;;13.40;64.63;101196.06;7366034;19;20007;-57
2022/05/21 05:15:30;;;;;;;0.10;0.10;;;;;;;13.38;65.16;101196.09;7366762;19;20110;-56
2022/05/21 05:18:00;;;;;;;0.00;0.00;;;;;;;13.44;64.06;101203.81;7364899;19;20085;-56
2022/05/21 05:20:26;;;;;;;0.05;0.05;;;;;;;13.31;64.96;101177.94;7366310;19;20475;-57
2022/05/21 05:22:51;;;;;;;0.00;0.00;;;;;;;13.45;64.78;101195.03;7364457;19;20003;-57
2022/05/21 05:25:17;;;;;;;0.00;0.00;;;;;;;13.36;64.96;101173.41;7363779;19;20015;-57
2022/05/21 05:27:43;;;;;;;0.00;0.00;;;;;;;13.49;64.57;101190.56;7364501;19;20010;-55
2022/05/21 05:30:09;;;;;;;0.00;0.00;;;;;;;13.51;64.67;101199.25;7362876;19;20026;-58
2022/05/21 05:32:34;;;;;;;0.00;0.00;;;;;;;13.50;64.18;101194.91;7361524;19;20006;-58
2022/05/21 05:34:59;;;;;;;0.10;0.10;;;;;;;13.55;64.44;101200.88;7365505;19;20019;-55
2022/05/21 05:37:25;;;;;;;0.00;0.00;;;;;;;13.56;64.59;101202.59;7363945;19;20002;-56
2022/05/21 05:39:50;;;;;;;0.00;0.00;;;;;;;13.60;64.44;101209.50;7365216;19;20010;-56
2022/05/21 05:42:17;;;;;;;0.00;0.00;;;;;;;13.63;64.46;101214.63;7363813;19;20014;-56
2022/05/21 05:44:43;;;;;;;0.10;0.10;;;;;;;13.64;64.30;101208.50;7364542;19;20010;-57
2022/05/21 05:47:08;;;;;;;0.00;0.00;;;;;;;13.69;64.42;101214.50;7362741;19;20702;-56
2022/05/21 05:49:33;;;;;;;0.00;0.00;;;;;;;13.72;64.34;101219.66;7364613;19;20010;-57
2022/05/21 05:51:59;;;;;;;0.00;0.00;;;;;;;13.76;64.27;101220.44;7363631;19;20006;-58
2022/05/21 05:54:24;;;;;;;0.00;0.00;;;;;;;13.81;64.61;101228.19;7365719;19;20014;-57
2022/05/21 05:56:50;;;;;;;0.00;0.00;;;;;;;13.83;64.59;101221.13;7365588;19;20098;-57
2022/05/21 06:04:42;;;;;;;0.00;0.00;;;;;;;13.91;64.19;101227.88;7364709;19;20119;-57
2022/05/21 06:07:13;;;;;;;0.00;0.00;;;;;;;13.97;63.28;101226.84;7363732;19;20090;-58
2022/05/21 06:09:38;;;;;;;0.00;0.00;;;;;;;13.97;64.23;101224.22;7362120;19;20122;-57
2022/05/21 06:12:04;;;;;;;0.10;0.10;;;;;;;13.99;63.78;101228.53;7363355;19;20086;-56
2022/05/21 06:14:29;;;;;;;0.10;0.10;;;;;;;14.00;63.80;101229.41;7362798;19;20040;-56
2022/05/21 06:16:54;;;;;;;0.10;0.10;;;;;;;13.99;63.84;101222.44;7362495;19;20014;-57
2022/05/21 06:19:20;;;;;;;0.10;0.10;;;;;;;13.94;63.20;101216.44;7364133;19;20022;-56
2022/05/21 06:21:45;;;;;;;0.00;0.00;;;;;;;14.05;63.42;101226.63;7362123;19;20359;-58
2022/05/21 06:24:11;;;;;;;0.00;0.00;;;;;;;14.05;63.61;101232.75;7363547;19;20331;-56
2022/05/21 06:26:36;;;;;;;0.00;0.00;;;;;;;14.02;63.51;101222.31;7363862;19;20011;-58
2022/05/21 06:29:01;;;;;;;0.05;0.05;;;;;;;14.09;63.59;101226.50;7360464;19;20006;-56
2022/05/21 06:31:27;;;;;;;0.08;0.08;;;;;;;14.06;62.93;101223.97;7361717;19;20033;-58
2022/05/21 06:33:52;;;;;;;0.10;0.10;;;;;;;14.12;63.34;101229.03;7363209;19;20007;-57
2022/05/21 06:36:18;;;;;;;0.00;0.00;;;;;;;14.14;62.91;101237.75;7364338;19;20492;-56
2022/05/21 06:38:44;;;;;;;0.00;0.00;;;;;;;14.17;63.42;101227.13;7362547;19;20110;-57
2022/05/21 06:41:10;;;;;;;0.00;0.00;;;;;;;14.18;63.25;101222.72;7365310;19;20354;-57
2022/05/21 06:43:35;;;;;;;0.00;0.00;;;;;;;14.15;63.46;101213.19;7360165;19;20006;-57
2022/05/21 06:46:01;;;;;;;0.10;0.10;;;;;;;14.13;62.62;101204.47;7364200;19;20011;-56
2022/05/21 06:48:27;;;;;;;0.03;0.03;;;;;;;14.24;62.69;101226.06;7361656;19;20150;-55
2022/05/21 06:50:54;;;;;;;0.10;0.10;;;;;;;14.28;62.82;101227.66;7364380;19;20013;-55
2022/05/21 06:53:19;;;;;;;0.10;0.10;;;;;;;14.32;63.20;101235.47;7361060;19;20015;-57
2022/05/21 06:55:45;;;;;;;0.00;0.00;;;;;;;14.34;63.00;101233.66;7359562;19;20018;-56
2022/05/21 06:58:11;;;;;;;0.00;0.00;;;;;;;14.37;63.08;101223.91;7359694;19;20078;-58
2022/05/21 07:00:37;;;;;;;0.10;0.10;;;;;;;14.42;62.64;101221.16;7350783;19;20013;-58
2022/05/21 07:03:03;;;;;;;0.00;0.00;;;;;;;14.44;62.94;101216.69;7344906;19;20517;-57
2022/05/21 07:08:19;;;;;;;0.00;0.00;;;;;;;14.53;62.81;101208.56;7359188;19;20016;-56
2022/05/21 07:10:44;;;;;;;0.05;0.05;;;;;;;14.56;62.67;101218.16;7362308;19;20006;-56
2022/05/21 07:13:10;;;;;;;0.00;0.00;;;;;;;14.61;62.10;101221.50;7357562;19;22638;-59
2022/05/21 07:15:35;;;;;;;0.00;0.00;;;;;;;14.63;62.36;101223.16;7356769;19;20006;-56
2022/05/21 07:18:01;;;;;;;0.00;0.00;;;;;;;14.67;61.80;101221.28;7356819;19;20014;-58
2022/05/21 07:20:28;;;;;;;0.00;0.00;;;;;;;14.72;61.21;101230.75;7358039;19;20837;-55
2022/05/21 07:22:53;;;;;;;0.00;0.00;;;;;;;14.63;61.54;101225.78;7355239;19;20039;-58
2022/05/21 07:25:25;;;;;;;0.10;0.10;;;;;;;14.70;61.60;101242.22;7359521;19;20573;-58
2022/05/21 07:27:51;;;;;;;0.00;0.00;;;;;;;14.77;61.63;101249.88;7357163;19;20327;-57
2022/05/21 07:30:17;;;;;;;0.00;0.00;;;;;;;14.81;61.73;101245.38;7355712;19;20026;-58
2022/05/21 07:32:44;;;;;;;0.00;0.00;;;;;;;14.84;61.48;101249.69;7357470;19;20010;-57
2022/05/21 07:35:12;;;;;;;0.00;0.00;;;;;;;14.89;61.64;101253.88;7358748;19;20655;-58
2022/05/21 07:37:39;;;;;;;0.05;0.05;;;;;;;14.85;61.44;101236.50;7354183;19;20018;-56
2022/05/21 07:40:05;;;;;;;0.00;0.00;;;;;;;14.97;61.78;101251.03;7341980;19;20013;-59
2022/05/21 07:42:32;;;;;;;0.00;0.00;;;;;;;15.01;61.78;101247.38;7328462;19;20018;-58
2022/05/21 07:44:57;;;;;;;0.00;0.00;;;;;;;15.08;61.19;101250.66;7338102;19;20443;-56
2022/05/21 07:47:24;;;;;;;0.05;0.05;;;;;;;15.11;61.26;101248.81;7362926;19;20006;-58
2022/05/21 07:49:56;;;;;;;0.00;0.00;;;;;;;15.22;61.66;101249.31;7364508;19;20010;-58
2022/05/21 07:52:27;;;;;;;0.03;0.03;;;;;;;15.29;61.16;101248.19;7361590;19;20010;-56
2022/05/21 07:54:53;;;;;;;0.10;0.10;;;;;;;15.34;61.44;101245.41;7359157;19;20022;-56
2022/05/21 07:57:19;;;;;;;0.00;0.00;;;;;;;15.45;61.25;101251.16;7361044;19;20481;-58
2022/05/21 07:59:44;;;;;;;0.10;0.10;;;;;;;15.51;60.90;101243.06;7361052;19;20006;-57
2022/05/21 08:02:15;;;;;;;0.00;0.00;;;;;;;15.67;60.66;101239.94;7363865;19;20481;-56
2022/05/21 08:04:42;;;;;;;0.10;0.10;;;;;;;15.77;60.73;101242.19;7358543;19;20041;-56
2022/05/21 08:07:08;;;;;;;0.05;0.05;;;;;;;15.86;60.80;101253.28;7362090;19;20018;-57
2022/05/21 08:09:34;;;;;;;0.00;0.00;;;;;;;15.94;60.31;101245.97;7364423;19;20046;-58
2022/05/21 08:11:59;;;;;;;0.00;0.00;;;;;;;16.01;59.77;101236.91;7365920;19;20014;-58
2022/05/21 08:14:25;;;;;;;0.00;0.00;;;;;;;16.09;59.46;101241.00;7362527;19;20003;-56
2022/05/21 08:16:50;;;;;;;0.00;0.00;;;;;;;16.16;59.40;101251.31;7365788;19;20628;-56
2022/05/21 08:19:16;;;;;;;0.00;0.00;;;;;;;16.22;59.25;101249.31;7362342;19;20030;-57
2022/05/21 08:21:42;;;;;;;0.08;0.08;;;;;;;16.26;58.89;101253.53;7366765;19;20021;-57
2022/05/21 08:27:02;;;;;;;0.10;0.10;;;;;;;16.32;58.61;101258.59;7364744;19;20026;-58
2022/05/21 08:29:30;;;;;;;0.00;0.00;;;;;;;16.33;58.76;101260.31;7359286;19;20017;-57
2022/05/21 08:31:56;;;;;;;0.05;0.05;;;;;;;16.31;58.30;101262.13;7357927;19;20026;-57
2022/05/21 08:34:24;;;;;;;0.10;0.10;;;;;;;16.32;58.52;101258.59;7353309;19;20030;-58
2022/05/21 08:36:49;;;;;;;;;;;;;;;16.40;58.63;101250.41;7363006;19;20349;-57
2022/05/21 08:39:18;;;;;;;0.00;0.00;;;;;;;16.38;58.19;101252.25;7365006;19;19914;-56
2022/05/21 08:41:54;;;;;;;0.00;0.00;;;;;;;16.42;57.98;101250.31;7360385;19;20509;-57
2022/05/21 08:44:23;;;;;;;0.05;0.05;;;;;;;16.43;58.46;101260.84;7364798;19;20022;-58
2022/05/21 08:47:02;;;;;;;0.00;0.00;;;;;;;16.47;58.40;101261.56;7364517;19;20573;-58
2022/05/21 08:49:43;;;;;;;0.00;0.00;;;;;;;16.53;58.88;101261.34;7360137;19;20082;-57
2022/05/21 08:52:20;;;;;;;0.00;0.00;;;;;;;16.57;58.61;101257.66;7363268;19;20018;-59
2022/05/21 08:54:50;;;;;;;0.00;0.00;;;;;;;16.60;57.61;101257.53;7364152;19;20010;-56
2022/05/21 08:57:25;;;;;;;0.00;0.00;;;;;;;16.66;57.82;101257.28;7360926;19;20145;-57
2022/05/21 09:00:10;;;;;;;0.10;0.10;;;;;;;16.70;57.79;101264.19;7362083;19;20105;-59
2022/05/21 09:02:37;;;;;;;0.00;0.00;;;;;;;16.64;58.18;101253.88;7359578;19;20015;-58
2022/05/21 09:05:07;;;;;;;0.00;0.00;;;;;;;16.73;57.73;101264.09;7360758;19;20010;-58
2022/05/21 09:08:03;;;;;;;0.00;0.00;;;;;;;16.65;57.83;101245.03;7354979;19;20021;-57
2022/05/21 09:10:33;;;;;;;0.10;0.10;;;;;;;16.76;56.90;101273.66;7253763;19;2004543;-56
2022/05/21 09:13:21;;;;;;;0.08;0.08;;;;;;;16.79;56.92;101271.75;7361432;19;20824;-57
2022/05/21 09:18:33;;;;;;;0.10;0.10;;;;;;;16.72;57.37;101265.00;7360007;19;20573;-58
2022/05/21 09:21:02;;;;;;;0.10;0.10;;;;;;;16.72;57.46;101267.63;7363335;19;20011;-57
2022/05/21 09:23:48;;;;;;;0.08;0.08;;;;;;;16.76;57.21;101258.69;7361716;19;20032;-57
2022/05/21 09:26:14;;;;;;;0.00;0.00;;;;;;;16.75;57.50;101256.97;7362435;19;21443;-58
2022/05/21 09:28:39;;;;;;;0.10;0.10;;;;;;;16.82;57.96;101265.50;7362790;19;20036;-59
2022/05/21 09:31:06;;;;;;;0.10;0.10;;;;;;;16.90;57.89;101265.19;7364102;19;20017;-57
2022/05/21 09:33:47;;;;;;;0.00;0.00;;;;;;;17.03;57.25;101267.28;7362467;19;20086;-58
2022/05/21 09:36:30;;;;;;;0.10;0.10;;;;;;;17.15;57.07;101276.47;7363704;19;20011;-59
2022/05/21 09:38:56;;;;;;;0.00;0.00;;;;;;;17.18;56.96;101268.41;7365493;19;20544;-57
2022/05/21 09:41:32;;;;;;;0.10;0.10;;;;;;;17.30;57.19;101278.50;7367572;19;20010;-58
2022/05/21 09:47:21;;;;;;;0.08;0.08;;;;;;;17.59;56.79;101276.41;7262712;19;2004556;-57
2022/05/21 09:50:07;;;;;;;0.00;0.00;;;;;;;17.72;56.85;101280.22;7264413;19;2004453;-57
2022/05/21 09:52:34;;;;;;;0.00;0.00;;;;;;;17.81;56.01;101286.94;7362064;19;20862;-58
2022/05/21 09:54:59;;;;;;;0.10;0.10;;;;;;;17.91;54.78;101276.84;7362061;19;20022;-58
2022/05/21 09:57:30;;;;;;;0.10;0.10;;;;;;;18.01;55.29;101267.56;7357683;19;20444;-58
2022/05/21 10:00:29;;;;;;;0.10;0.10;;;;;;;18.15;56.01;101270.47;7354680;19;20022;-58
2022/05/21 10:03:00;;;;;;;0.10;0.10;;;;;;;18.40;56.00;101276.34;7249137;19;2005555;-58
2022/05/21 10:05:37;;;;;;;0.10;0.10;;;;;;;18.71;55.48;101264.38;7359742;19;20473;-58
2022/05/21 10:11:25;;;;;;;0.10;0.10;;;;;;;19.17;54.17;101262.13;7255874;19;2004481;-57
2022/05/21 10:13:57;;;;;;;0.00;0.00;;;;;;;19.32;53.68;101260.50;7340788;19;20025;-57
2022/05/21 10:16:37;;;;;;;0.03;0.03;;;;;;;19.47;53.60;101262.38;7352618;19;20003;-57
2022/05/21 10:19:15;;;;;;;0.10;0.10;;;;;;;19.50;51.73;101264.84;7357587;19;20082;-57
2022/05/21 10:22:00;;;;;;;0.10;0.10;;;;;;;19.64;53.53;101256.25;7350690;19;20362;-59
2022/05/21 10:24:59;;;;;;;0.10;0.10;;;;;;;19.76;53.31;101245.00;7354658;19;20017;-59
2022/05/21 10:27:34;;;;;;;0.00;0.00;;;;;;;19.86;51.20;101238.28;7229328;19;2005588;-56
2022/05/21 10:30:28;;;;;;;0.00;0.00;;;;;;;19.94;52.86;101243.19;7328077;19;20578;-56
2022/05/21 10:33:32;;;;;;;0.10;0.10;;;;;;;20.01;52.31;101243.69;7247636;19;2004533;-59
2022/05/21 10:36:16;;;;;;;0.10;0.10;;;;;;;20.08;51.91;101245.97;7258120;19;2004166;-58
2022/05/21 10:38:51;;;;;;;0.10;0.10;;;;;;;20.14;51.53;101244.78;7359928;19;20445;-57
2022/05/21 10:41:38;;;;;;;0.05;0.05;;;;;;;20.28;51.55;101250.19;7359528;19;20026;-58
2022/05/21 10:44:31;;;;;;;0.03;0.03;;;;;;;20.44;51.58;101248.41;7361416;19;20007;-57
2022/05/21 10:47:10;;;;;;;0.10;0.10;;;;;;;20.57;51.00;101242.44;7260424;19;2004470;-56
2022/05/21 10:49:58;;;;;;;0.10;0.10;;;;;;;20.71;49.93;101245.19;7362288;19;20007;-57
2022/05/21 10:52:32;;;;;;;0.10;0.10;;;;;;;20.79;49.35;101253.56;7362171;19;20006;-58
2022/05/21 10:55:06;;;;;;;0.10;0.10;;;;;;;20.92;50.49;101264.34;7360709;19;20913;-57
2022/05/21 10:57:50;;;;;;;0.10;0.10;;;;;;;20.93;49.91;101251.00;7361738;19;20011;-57
2022/05/21 11:00:27;;;;;;;0.10;0.10;;;;;;;20.88;49.47;101246.88;7363439;19;20016;-58
2022/05/21 11:03:14;;;;;;;0.10;0.10;;;;;;;20.87;50.73;101239.84;7358799;19;20380;-57
2022/05/21 11:05:54;;;;;;;0.03;0.03;;;;;;;20.80;49.12;101244.66;7359195;19;20027;-58
2022/05/21 11:08:35;;;;;;;0.10;0.10;;;;;;;20.82;48.29;101237.44;7362157;19;20007;-59
2022/05/21 11:11:06;;;;;;;0.10;0.10;;;;;;;20.76;48.86;101237.81;7360358;19;20002;-57
2022/05/21 11:13:45;;;;;;;0.08;0.08;;;;;;;20.83;49.89;101244.47;7360842;19;20336;-58
2022/05/21 11:16:18;;;;;;;0.10;0.10;;;;;;;20.87;49.43;101238.03;7358592;19;20025;-57
2022/05/21 11:18:55;;;;;;;0.00;0.00;;;;;;;20.96;48.97;101245.50;7359802;19;20031;-58
2022/05/21 11:21:33;;;;;;;0.00;0.00;;;;;;;21.07;49.53;101241.34;7363084;19;20328;-58
2022/05/21 11:24:08;;;;;;;0.10;0.10;;;;;;;21.10;48.26;101238.53;7367501;19;20010;-58
2022/05/21 11:26:39;;;;;;;0.08;0.08;;;;;;;21.17;48.51;101247.84;7362029;19;20117;-57
2022/05/21 11:29:12;;;;;;;0.10;0.10;;;;;;;21.20;47.86;101229.09;7364198;19;20451;-58
2022/05/21 11:37:44;;;;;;;0.00;0.00;;;;;;;21.41;47.49;101222.53;7266553;19;2004467;-58
2022/05/21 11:40:49;;;;;;;0.10;0.10;;;;;;;21.53;48.58;101218.28;7369419;19;20014;-57
2022/05/21 11:43:15;;;;;;;0.10;0.10;;;;;;;21.62;48.09;101206.25;7254498;19;2004403;-57
2022/05/21 11:45:41;;;;;;;0.10;0.10;;;;;;;21.75;46.48;101207.22;7369266;19;20010;-58
2022/05/21 11:48:16;;;;;;;0.10;0.10;;;;;;;22.06;47.06;101215.94;7363485;19;20093;-58
2022/05/21 11:50:42;;;;;;;0.10;0.10;;;;;;;22.12;46.82;101218.25;7367201;19;20044;-57
2022/05/21 11:53:30;;;;;;;0.10;0.10;;;;;;;22.28;45.91;101211.00;7367471;19;20063;-57
2022/05/21 11:56:03;;;;;;;0.10;0.10;;;;;;;22.42;46.93;101213.63;7266349;19;2004557;-58
2022/05/21 11:59:00;;;;;;;0.10;0.10;;;;;;;22.50;47.31;101208.66;7365826;19;20925;-58
2022/05/21 12:01:40;;;;;;;0.10;0.10;;;;;;;22.57;46.27;101205.63;7266825;19;2004437;-58
2022/05/21 12:04:22;;;;;;;0.10;0.10;;;;;;;22.52;44.46;101204.09;7368817;19;20018;-57
2022/05/21 12:06:48;;;;;;;0.00;0.00;;;;;;;22.46;45.10;101193.88;7366879;19;20059;-59